sensor_id;sensor_type;location;lat;lon;timestamp;P1;durP1;ratioP1;P2;durP2;ratioP2
25351;SDS011;13304;48.464;8.712;2023-04-22T00:00:02;4.32;;;2.28;;
25351;SDS011;13304;48.464;8.712;2023-04-22T00:02:29;5.90;;;2.72;;
25351;SDS011;13304;48.464;8.712;2023-04-22T00:04:54;4.70;;;2.40;;
25351;SDS011;13304;48.464;8.712;2023-04-22T00:07:21;5.50;;;2.80;;
25351;SDS011;13304;48.464;8.712;2023-04-22T00:09:47;6.65;;;2.47;;
25351;SDS011;13304;48.464;8.712;2023-04-22T00:12:13;7.15;;;2.83;;
25351;SDS011;13304;48.464;8.712;2023-04-22T00:14:39;3.75;;;2.40;;
25351;SDS011;13304;48.464;8.712;2023-04-22T00:17:05;5.38;;;2.80;;
25351;SDS011;13304;48.464;8.712;2023-04-22T00:19:31;3.83;;;2.20;;
25351;SDS011;13304;48.464;8.712;2023-04-22T00:21:57;4.47;;;2.40;;
25351;SDS011;13304;48.464;8.712;2023-04-22T00:24:23;4.20;;;1.98;;
25351;SDS011;13304;48.464;8.712;2023-04-22T00:26:49;3.13;;;2.20;;
25351;SDS011;13304;48.464;8.712;2023-04-22T00:29:15;3.20;;;2.42;;
25351;SDS011;13304;48.464;8.712;2023-04-22T00:31:40;3.28;;;2.03;;
25351;SDS011;13304;48.464;8.712;2023-04-22T00:34:06;5.13;;;2.33;;
25351;SDS011;13304;48.464;8.712;2023-04-22T00:36:32;3.63;;;2.35;;
25351;SDS011;13304;48.464;8.712;2023-04-22T00:38:57;4.75;;;2.22;;
25351;SDS011;13304;48.464;8.712;2023-04-22T00:41:24;3.90;;;2.20;;
25351;SDS011;13304;48.464;8.712;2023-04-22T00:43:52;4.20;;;2.00;;
25351;SDS011;13304;48.464;8.712;2023-04-22T00:46:20;3.75;;;2.20;;
25351;SDS011;13304;48.464;8.712;2023-04-22T00:48:46;3.28;;;2.40;;
25351;SDS011;13304;48.464;8.712;2023-04-22T00:51:13;6.07;;;2.78;;
25351;SDS011;13304;48.464;8.712;2023-04-22T00:53:39;4.72;;;2.90;;
25351;SDS011;13304;48.464;8.712;2023-04-22T00:56:04;9.32;;;4.82;;
25351;SDS011;13304;48.464;8.712;2023-04-22T00:58:30;8.80;;;4.82;;
25351;SDS011;13304;48.464;8.712;2023-04-22T01:00:57;5.38;;;3.35;;
25351;SDS011;13304;48.464;8.712;2023-04-22T01:03:23;4.68;;;2.80;;
25351;SDS011;13304;48.464;8.712;2023-04-22T01:05:52;8.05;;;3.00;;
25351;SDS011;13304;48.464;8.712;2023-04-22T01:08:18;5.35;;;2.80;;
25351;SDS011;13304;48.464;8.712;2023-04-22T01:10:43;4.53;;;2.70;;
25351;SDS011;13304;48.464;8.712;2023-04-22T01:13:10;6.80;;;2.72;;
25351;SDS011;13304;48.464;8.712;2023-04-22T01:15:36;3.45;;;2.45;;
25351;SDS011;13304;48.464;8.712;2023-04-22T01:18:02;5.25;;;2.78;;
25351;SDS011;13304;48.464;8.712;2023-04-22T01:20:28;4.78;;;2.78;;
25351;SDS011;13304;48.464;8.712;2023-04-22T01:22:54;6.22;;;2.78;;
25351;SDS011;13304;48.464;8.712;2023-04-22T01:25:23;3.30;;;2.45;;
25351;SDS011;13304;48.464;8.712;2023-04-22T01:27:51;5.25;;;2.50;;
25351;SDS011;13304;48.464;8.712;2023-04-22T01:30:18;4.97;;;2.63;;
25351;SDS011;13304;48.464;8.712;2023-04-22T01:32:44;4.88;;;2.40;;
25351;SDS011;13304;48.464;8.712;2023-04-22T01:35:10;4.47;;;2.67;;
25351;SDS011;13304;48.464;8.712;2023-04-22T01:37:36;4.80;;;2.75;;
25351;SDS011;13304;48.464;8.712;2023-04-22T01:40:02;4.43;;;2.72;;
25351;SDS011;13304;48.464;8.712;2023-04-22T01:42:29;4.30;;;2.47;;
25351;SDS011;13304;48.464;8.712;2023-04-22T01:44:55;6.07;;;2.42;;
25351;SDS011;13304;48.464;8.712;2023-04-22T01:47:21;3.95;;;2.42;;
25351;SDS011;13304;48.464;8.712;2023-04-22T01:49:47;5.13;;;2.50;;
25351;SDS011;13304;48.464;8.712;2023-04-22T01:52:13;5.95;;;2.78;;
25351;SDS011;13304;48.464;8.712;2023-04-22T01:54:39;5.63;;;2.72;;
25351;SDS011;13304;48.464;8.712;2023-04-22T01:57:07;5.18;;;2.88;;
25351;SDS011;13304;48.464;8.712;2023-04-22T01:59:35;5.35;;;2.97;;
25351;SDS011;13304;48.464;8.712;2023-04-22T02:02:02;5.10;;;3.15;;
25351;SDS011;13304;48.464;8.712;2023-04-22T02:04:27;7.15;;;3.05;;
25351;SDS011;13304;48.464;8.712;2023-04-22T02:06:53;4.63;;;2.80;;
25351;SDS011;13304;48.464;8.712;2023-04-22T02:09:21;3.50;;;2.63;;
25351;SDS011;13304;48.464;8.712;2023-04-22T02:11:47;7.45;;;2.42;;
25351;SDS011;13304;48.464;8.712;2023-04-22T02:14:12;4.22;;;2.85;;
25351;SDS011;13304;48.464;8.712;2023-04-22T02:16:39;10.15;;;3.20;;
25351;SDS011;13304;48.464;8.712;2023-04-22T02:19:05;4.38;;;2.70;;
25351;SDS011;13304;48.464;8.712;2023-04-22T02:21:31;5.05;;;2.78;;
25351;SDS011;13304;48.464;8.712;2023-04-22T02:23:57;4.43;;;2.90;;
25351;SDS011;13304;48.464;8.712;2023-04-22T02:26:23;6.80;;;3.50;;
25351;SDS011;13304;48.464;8.712;2023-04-22T02:28:50;4.53;;;2.95;;
25351;SDS011;13304;48.464;8.712;2023-04-22T02:31:16;5.80;;;3.33;;
25351;SDS011;13304;48.464;8.712;2023-04-22T02:33:44;9.38;;;3.72;;
25351;SDS011;13304;48.464;8.712;2023-04-22T02:36:10;9.57;;;4.18;;
25351;SDS011;13304;48.464;8.712;2023-04-22T02:38:36;8.07;;;3.65;;
25351;SDS011;13304;48.464;8.712;2023-04-22T02:41:04;5.00;;;3.03;;
25351;SDS011;13304;48.464;8.712;2023-04-22T02:43:29;6.30;;;3.20;;
25351;SDS011;13304;48.464;8.712;2023-04-22T02:45:55;4.80;;;3.10;;
25351;SDS011;13304;48.464;8.712;2023-04-22T02:48:21;3.88;;;3.00;;
25351;SDS011;13304;48.464;8.712;2023-04-22T02:50:47;5.68;;;2.88;;
25351;SDS011;13304;48.464;8.712;2023-04-22T02:53:12;5.03;;;3.13;;
25351;SDS011;13304;48.464;8.712;2023-04-22T02:55:40;5.07;;;3.38;;
25351;SDS011;13304;48.464;8.712;2023-04-22T02:58:06;6.22;;;3.78;;
25351;SDS011;13304;48.464;8.712;2023-04-22T03:00:33;7.70;;;3.40;;
25351;SDS011;13304;48.464;8.712;2023-04-22T03:02:59;5.65;;;3.10;;
25351;SDS011;13304;48.464;8.712;2023-04-22T03:05:24;5.70;;;3.55;;
25351;SDS011;13304;48.464;8.712;2023-04-22T03:07:50;10.80;;;3.13;;
25351;SDS011;13304;48.464;8.712;2023-04-22T03:10:18;4.00;;;2.90;;
25351;SDS011;13304;48.464;8.712;2023-04-22T03:12:44;6.72;;;2.95;;
25351;SDS011;13304;48.464;8.712;2023-04-22T03:15:10;4.15;;;2.90;;
25351;SDS011;13304;48.464;8.712;2023-04-22T03:17:36;5.68;;;2.78;;
25351;SDS011;13304;48.464;8.712;2023-04-22T03:20:02;7.65;;;3.38;;
25351;SDS011;13304;48.464;8.712;2023-04-22T03:22:28;5.63;;;2.75;;
25351;SDS011;13304;48.464;8.712;2023-04-22T03:24:54;4.85;;;3.03;;
25351;SDS011;13304;48.464;8.712;2023-04-22T03:27:20;8.13;;;3.03;;
25351;SDS011;13304;48.464;8.712;2023-04-22T03:29:45;6.18;;;3.28;;
25351;SDS011;13304;48.464;8.712;2023-04-22T03:32:11;6.70;;;3.50;;
25351;SDS011;13304;48.464;8.712;2023-04-22T03:34:37;4.50;;;3.13;;
25351;SDS011;13304;48.464;8.712;2023-04-22T03:37:03;8.05;;;3.13;;
25351;SDS011;13304;48.464;8.712;2023-04-22T03:39:28;4.07;;;3.25;;
25351;SDS011;13304;48.464;8.712;2023-04-22T03:41:54;4.53;;;3.05;;
25351;SDS011;13304;48.464;8.712;2023-04-22T03:44:20;5.32;;;3.00;;
25351;SDS011;13304;48.464;8.712;2023-04-22T03:46:46;4.97;;;3.25;;
25351;SDS011;13304;48.464;8.712;2023-04-22T03:49:12;6.20;;;3.97;;
25351;SDS011;13304;48.464;8.712;2023-04-22T03:51:37;5.55;;;3.90;;
25351;SDS011;13304;48.464;8.712;2023-04-22T03:54:03;6.47;;;4.00;;
25351;SDS011;13304;48.464;8.712;2023-04-22T03:56:29;6.78;;;3.88;;
25351;SDS011;13304;48.464;8.712;2023-04-22T03:58:54;7.18;;;3.40;;
25351;SDS011;13304;48.464;8.712;2023-04-22T04:01:20;10.23;;;3.83;;
25351;SDS011;13304;48.464;8.712;2023-04-22T04:03:47;8.65;;;3.92;;
25351;SDS011;13304;48.464;8.712;2023-04-22T04:06:13;5.80;;;3.60;;
25351;SDS011;13304;48.464;8.712;2023-04-22T04:08:39;7.53;;;3.85;;
25351;SDS011;13304;48.464;8.712;2023-04-22T04:11:04;12.20;;;3.70;;
25351;SDS011;13304;48.464;8.712;2023-04-22T04:13:30;7.78;;;3.47;;
25351;SDS011;13304;48.464;8.712;2023-04-22T04:15:57;8.65;;;3.80;;
25351;SDS011;13304;48.464;8.712;2023-04-22T04:18:24;5.10;;;3.40;;
25351;SDS011;13304;48.464;8.712;2023-04-22T04:20:50;6.43;;;3.58;;
25351;SDS011;13304;48.464;8.712;2023-04-22T04:23:16;16.25;;;3.88;;
25351;SDS011;13304;48.464;8.712;2023-04-22T04:25:42;6.38;;;3.85;;
25351;SDS011;13304;48.464;8.712;2023-04-22T04:28:09;7.13;;;3.88;;
25351;SDS011;13304;48.464;8.712;2023-04-22T04:30:36;8.27;;;4.20;;
25351;SDS011;13304;48.464;8.712;2023-04-22T04:33:02;7.95;;;4.13;;
25351;SDS011;13304;48.464;8.712;2023-04-22T04:35:34;6.60;;;3.78;;
25351;SDS011;13304;48.464;8.712;2023-04-22T04:38:04;4.15;;;3.20;;
25351;SDS011;13304;48.464;8.712;2023-04-22T04:40:30;5.50;;;3.60;;
25351;SDS011;13304;48.464;8.712;2023-04-22T04:42:57;8.23;;;3.13;;
25351;SDS011;13304;48.464;8.712;2023-04-22T04:45:23;5.88;;;3.90;;
25351;SDS011;13304;48.464;8.712;2023-04-22T04:47:49;6.93;;;3.78;;
25351;SDS011;13304;48.464;8.712;2023-04-22T04:50:16;7.05;;;3.72;;
25351;SDS011;13304;48.464;8.712;2023-04-22T04:52:44;6.82;;;3.90;;
25351;SDS011;13304;48.464;8.712;2023-04-22T04:55:11;7.43;;;3.85;;
25351;SDS011;13304;48.464;8.712;2023-04-22T04:57:37;5.40;;;3.80;;
25351;SDS011;13304;48.464;8.712;2023-04-22T05:00:02;4.97;;;3.72;;
25351;SDS011;13304;48.464;8.712;2023-04-22T05:02:29;5.18;;;3.35;;
25351;SDS011;13304;48.464;8.712;2023-04-22T05:04:54;5.07;;;3.55;;
25351;SDS011;13304;48.464;8.712;2023-04-22T05:07:20;4.97;;;3.80;;
25351;SDS011;13304;48.464;8.712;2023-04-22T05:09:46;7.13;;;3.80;;
25351;SDS011;13304;48.464;8.712;2023-04-22T05:12:11;5.20;;;3.50;;
25351;SDS011;13304;48.464;8.712;2023-04-22T05:14:37;5.63;;;3.65;;
25351;SDS011;13304;48.464;8.712;2023-04-22T05:17:04;4.95;;;3.40;;
25351;SDS011;13304;48.464;8.712;2023-04-22T05:19:33;5.65;;;3.40;;
25351;SDS011;13304;48.464;8.712;2023-04-22T05:21:58;9.30;;;3.55;;
25351;SDS011;13304;48.464;8.712;2023-04-22T05:24:24;11.20;;;3.63;;
25351;SDS011;13304;48.464;8.712;2023-04-22T05:26:50;6.93;;;3.80;;
25351;SDS011;13304;48.464;8.712;2023-04-22T05:29:15;10.60;;;3.92;;
25351;SDS011;13304;48.464;8.712;2023-04-22T05:31:41;10.68;;;3.72;;
25351;SDS011;13304;48.464;8.712;2023-04-22T05:34:07;8.23;;;3.60;;
25351;SDS011;13304;48.464;8.712;2023-04-22T05:36:33;9.18;;;3.63;;
25351;SDS011;13304;48.464;8.712;2023-04-22T05:38:58;6.93;;;3.58;;
25351;SDS011;13304;48.464;8.712;2023-04-22T05:41:24;10.32;;;3.58;;
25351;SDS011;13304;48.464;8.712;2023-04-22T05:43:50;8.38;;;3.72;;
25351;SDS011;13304;48.464;8.712;2023-04-22T05:46:16;8.23;;;3.80;;
25351;SDS011;13304;48.464;8.712;2023-04-22T05:48:42;6.35;;;3.78;;
25351;SDS011;13304;48.464;8.712;2023-04-22T05:51:07;6.78;;;3.90;;
25351;SDS011;13304;48.464;8.712;2023-04-22T05:53:33;7.53;;;3.88;;
25351;SDS011;13304;48.464;8.712;2023-04-22T05:55:59;4.47;;;3.50;;
25351;SDS011;13304;48.464;8.712;2023-04-22T05:58:25;7.38;;;4.20;;
25351;SDS011;13304;48.464;8.712;2023-04-22T06:00:51;6.18;;;3.95;;
25351;SDS011;13304;48.464;8.712;2023-04-22T06:03:16;6.60;;;3.47;;
25351;SDS011;13304;48.464;8.712;2023-04-22T06:05:42;10.15;;;4.95;;
25351;SDS011;13304;48.464;8.712;2023-04-22T06:08:10;6.05;;;4.05;;
25351;SDS011;13304;48.464;8.712;2023-04-22T06:10:36;28.58;;;17.33;;
25351;SDS011;13304;48.464;8.712;2023-04-22T06:13:02;13.60;;;7.82;;
25351;SDS011;13304;48.464;8.712;2023-04-22T06:15:28;6.80;;;4.47;;
25351;SDS011;13304;48.464;8.712;2023-04-22T06:17:53;11.27;;;6.88;;
25351;SDS011;13304;48.464;8.712;2023-04-22T06:20:19;9.98;;;5.32;;
25351;SDS011;13304;48.464;8.712;2023-04-22T06:22:45;7.07;;;4.72;;
25351;SDS011;13304;48.464;8.712;2023-04-22T06:25:11;11.05;;;4.03;;
25351;SDS011;13304;48.464;8.712;2023-04-22T06:27:36;8.32;;;6.13;;
25351;SDS011;13304;48.464;8.712;2023-04-22T06:30:03;11.10;;;7.50;;
25351;SDS011;13304;48.464;8.712;2023-04-22T06:32:29;26.30;;;14.25;;
25351;SDS011;13304;48.464;8.712;2023-04-22T06:34:55;8.57;;;5.95;;
25351;SDS011;13304;48.464;8.712;2023-04-22T06:37:21;5.30;;;4.03;;
25351;SDS011;13304;48.464;8.712;2023-04-22T06:39:46;10.15;;;3.65;;
25351;SDS011;13304;48.464;8.712;2023-04-22T06:42:12;8.15;;;3.80;;
25351;SDS011;13304;48.464;8.712;2023-04-22T06:44:38;8.38;;;4.75;;
25351;SDS011;13304;48.464;8.712;2023-04-22T06:47:04;12.77;;;7.05;;
25351;SDS011;13304;48.464;8.712;2023-04-22T06:49:29;9.73;;;6.22;;
25351;SDS011;13304;48.464;8.712;2023-04-22T06:51:55;10.63;;;6.55;;
25351;SDS011;13304;48.464;8.712;2023-04-22T06:54:21;7.40;;;5.05;;
25351;SDS011;13304;48.464;8.712;2023-04-22T06:56:47;9.85;;;5.03;;
25351;SDS011;13304;48.464;8.712;2023-04-22T06:59:12;7.13;;;4.10;;
25351;SDS011;13304;48.464;8.712;2023-04-22T07:01:38;5.50;;;3.85;;
25351;SDS011;13304;48.464;8.712;2023-04-22T07:04:04;5.38;;;4.15;;
25351;SDS011;13304;48.464;8.712;2023-04-22T07:06:30;8.52;;;4.10;;
25351;SDS011;13304;48.464;8.712;2023-04-22T07:08:57;6.07;;;3.58;;
25351;SDS011;13304;48.464;8.712;2023-04-22T07:11:22;7.85;;;3.78;;
25351;SDS011;13304;48.464;8.712;2023-04-22T07:13:48;6.40;;;3.33;;
25351;SDS011;13304;48.464;8.712;2023-04-22T07:16:14;6.95;;;3.38;;
25351;SDS011;13304;48.464;8.712;2023-04-22T07:18:39;5.05;;;3.65;;
25351;SDS011;13304;48.464;8.712;2023-04-22T07:21:05;5.05;;;3.35;;
25351;SDS011;13304;48.464;8.712;2023-04-22T07:23:31;6.13;;;3.95;;
25351;SDS011;13304;48.464;8.712;2023-04-22T07:25:57;6.72;;;3.78;;
25351;SDS011;13304;48.464;8.712;2023-04-22T07:28:22;8.13;;;4.00;;
25351;SDS011;13304;48.464;8.712;2023-04-22T07:30:48;3.85;;;3.05;;
25351;SDS011;13304;48.464;8.712;2023-04-22T07:33:14;7.38;;;3.60;;
25351;SDS011;13304;48.464;8.712;2023-04-22T07:35:40;5.78;;;3.42;;
25351;SDS011;13304;48.464;8.712;2023-04-22T07:38:06;9.18;;;3.88;;
25351;SDS011;13304;48.464;8.712;2023-04-22T07:40:32;4.55;;;3.17;;
25351;SDS011;13304;48.464;8.712;2023-04-22T07:42:57;4.85;;;3.00;;
25351;SDS011;13304;48.464;8.712;2023-04-22T07:45:23;5.13;;;2.88;;
25351;SDS011;13304;48.464;8.712;2023-04-22T07:47:49;5.90;;;3.15;;
25351;SDS011;13304;48.464;8.712;2023-04-22T07:50:15;6.63;;;2.60;;
25351;SDS011;13304;48.464;8.712;2023-04-22T07:52:41;5.28;;;2.70;;
25351;SDS011;13304;48.464;8.712;2023-04-22T07:55:07;4.50;;;3.03;;
25351;SDS011;13304;48.464;8.712;2023-04-22T07:57:32;3.88;;;2.75;;
25351;SDS011;13304;48.464;8.712;2023-04-22T08:00:03;3.10;;;2.55;;
25351;SDS011;13304;48.464;8.712;2023-04-22T08:02:30;2.60;;;2.20;;
25351;SDS011;13304;48.464;8.712;2023-04-22T08:04:56;5.20;;;2.30;;
25351;SDS011;13304;48.464;8.712;2023-04-22T08:07:21;3.15;;;1.92;;
25351;SDS011;13304;48.464;8.712;2023-04-22T08:09:47;4.82;;;2.17;;
25351;SDS011;13304;48.464;8.712;2023-04-22T08:12:13;4.25;;;2.10;;
25351;SDS011;13304;48.464;8.712;2023-04-22T08:14:39;5.05;;;2.38;;
25351;SDS011;13304;48.464;8.712;2023-04-22T08:17:05;2.85;;;2.15;;
25351;SDS011;13304;48.464;8.712;2023-04-22T08:19:30;3.78;;;2.05;;
25351;SDS011;13304;48.464;8.712;2023-04-22T08:21:56;6.32;;;2.13;;
25351;SDS011;13304;48.464;8.712;2023-04-22T08:24:22;4.45;;;2.30;;
25351;SDS011;13304;48.464;8.712;2023-04-22T08:26:48;3.65;;;2.35;;
25351;SDS011;13304;48.464;8.712;2023-04-22T08:29:14;3.88;;;2.03;;
25351;SDS011;13304;48.464;8.712;2023-04-22T08:31:40;6.50;;;2.33;;
25351;SDS011;13304;48.464;8.712;2023-04-22T08:34:06;3.90;;;2.10;;
25351;SDS011;13304;48.464;8.712;2023-04-22T08:36:32;3.80;;;2.40;;
25351;SDS011;13304;48.464;8.712;2023-04-22T08:38:57;4.03;;;1.95;;
25351;SDS011;13304;48.464;8.712;2023-04-22T08:41:23;3.72;;;2.00;;
25351;SDS011;13304;48.464;8.712;2023-04-22T08:43:51;3.58;;;2.10;;
25351;SDS011;13304;48.464;8.712;2023-04-22T08:46:17;4.75;;;1.92;;
25351;SDS011;13304;48.464;8.712;2023-04-22T08:48:48;5.93;;;2.00;;
25351;SDS011;13304;48.464;8.712;2023-04-22T08:51:15;4.38;;;2.00;;
25351;SDS011;13304;48.464;8.712;2023-04-22T08:53:45;7.35;;;1.90;;
25351;SDS011;13304;48.464;8.712;2023-04-22T08:56:11;4.32;;;1.85;;
25351;SDS011;13304;48.464;8.712;2023-04-22T08:58:39;4.68;;;1.90;;
25351;SDS011;13304;48.464;8.712;2023-04-22T09:01:06;2.60;;;2.17;;
25351;SDS011;13304;48.464;8.712;2023-04-22T09:03:34;3.20;;;1.73;;
25351;SDS011;13304;48.464;8.712;2023-04-22T09:06:03;3.60;;;2.05;;
25351;SDS011;13304;48.464;8.712;2023-04-22T09:08:30;3.45;;;1.60;;
25351;SDS011;13304;48.464;8.712;2023-04-22T09:10:56;2.88;;;1.70;;
25351;SDS011;13304;48.464;8.712;2023-04-22T09:13:24;2.22;;;1.50;;
25351;SDS011;13304;48.464;8.712;2023-04-22T09:15:50;3.33;;;1.80;;
25351;SDS011;13304;48.464;8.712;2023-04-22T09:18:16;5.60;;;1.67;;
25351;SDS011;13304;48.464;8.712;2023-04-22T09:20:43;3.17;;;1.60;;
25351;SDS011;13304;48.464;8.712;2023-04-22T09:23:12;7.53;;;1.55;;
25351;SDS011;13304;48.464;8.712;2023-04-22T09:25:38;2.33;;;1.60;;
25351;SDS011;13304;48.464;8.712;2023-04-22T09:28:04;4.57;;;1.85;;
25351;SDS011;13304;48.464;8.712;2023-04-22T09:30:32;2.95;;;1.45;;
25351;SDS011;13304;48.464;8.712;2023-04-22T09:33:00;1.95;;;1.20;;
25351;SDS011;13304;48.464;8.712;2023-04-22T09:35:31;9.52;;;1.90;;
25351;SDS011;13304;48.464;8.712;2023-04-22T09:37:59;6.03;;;1.33;;
25351;SDS011;13304;48.464;8.712;2023-04-22T09:40:26;2.63;;;1.42;;
25351;SDS011;13304;48.464;8.712;2023-04-22T09:42:54;2.72;;;1.60;;
25351;SDS011;13304;48.464;8.712;2023-04-22T09:45:37;3.03;;;2.35;;
25351;SDS011;13304;48.464;8.712;2023-04-22T09:50:37;4.18;;;1.70;;
25351;SDS011;13304;48.464;8.712;2023-04-22T09:53:07;4.25;;;1.50;;
25351;SDS011;13304;48.464;8.712;2023-04-22T09:55:39;10.73;;;2.45;;
25351;SDS011;13304;48.464;8.712;2023-04-22T09:58:10;2.15;;;1.30;;
25351;SDS011;13304;48.464;8.712;2023-04-22T10:00:41;3.55;;;1.90;;
25351;SDS011;13304;48.464;8.712;2023-04-22T10:03:15;6.18;;;1.75;;
25351;SDS011;13304;48.464;8.712;2023-04-22T10:05:42;2.40;;;1.10;;
25351;SDS011;13304;48.464;8.712;2023-04-22T10:08:09;1.98;;;1.17;;
25351;SDS011;13304;48.464;8.712;2023-04-22T10:10:37;3.35;;;1.50;;
25351;SDS011;13304;48.464;8.712;2023-04-22T10:13:04;6.00;;;1.38;;
25351;SDS011;13304;48.464;8.712;2023-04-22T10:15:31;4.10;;;1.23;;
25351;SDS011;13304;48.464;8.712;2023-04-22T10:18:04;7.07;;;1.25;;
25351;SDS011;13304;48.464;8.712;2023-04-22T10:20:31;5.00;;;1.50;;
25351;SDS011;13304;48.464;8.712;2023-04-22T10:23:02;10.80;;;2.55;;
25351;SDS011;13304;48.464;8.712;2023-04-22T10:25:29;5.65;;;1.90;;
25351;SDS011;13304;48.464;8.712;2023-04-22T10:30:31;3.75;;;1.40;;
25351;SDS011;13304;48.464;8.712;2023-04-22T10:38:39;6.35;;;2.05;;
25351;SDS011;13304;48.464;8.712;2023-04-22T10:41:14;2.22;;;1.27;;
25351;SDS011;13304;48.464;8.712;2023-04-22T10:43:45;4.82;;;1.10;;
25351;SDS011;13304;48.464;8.712;2023-04-22T10:49:11;3.95;;;1.40;;
25351;SDS011;13304;48.464;8.712;2023-04-22T10:57:06;4.38;;;1.35;;
25351;SDS011;13304;48.464;8.712;2023-04-22T11:02:12;4.88;;;1.50;;
25351;SDS011;13304;48.464;8.712;2023-04-22T11:04:38;4.10;;;1.73;;
25351;SDS011;13304;48.464;8.712;2023-04-22T11:07:14;2.90;;;1.48;;
25351;SDS011;13304;48.464;8.712;2023-04-22T11:09:58;2.35;;;1.10;;
25351;SDS011;13304;48.464;8.712;2023-04-22T11:15:12;3.53;;;1.65;;
25351;SDS011;13304;48.464;8.712;2023-04-22T11:17:44;4.72;;;1.50;;
25351;SDS011;13304;48.464;8.712;2023-04-22T11:20:11;6.95;;;1.45;;
25351;SDS011;13304;48.464;8.712;2023-04-22T11:22:42;2.60;;;1.33;;
25351;SDS011;13304;48.464;8.712;2023-04-22T11:25:26;4.00;;;1.52;;
25351;SDS011;13304;48.464;8.712;2023-04-22T11:27:52;5.32;;;1.42;;
25351;SDS011;13304;48.464;8.712;2023-04-22T11:30:22;5.50;;;1.75;;
25351;SDS011;13304;48.464;8.712;2023-04-22T11:32:53;5.22;;;1.50;;
25351;SDS011;13304;48.464;8.712;2023-04-22T11:35:22;6.20;;;1.48;;
25351;SDS011;13304;48.464;8.712;2023-04-22T11:38:01;5.35;;;1.60;;
25351;SDS011;13304;48.464;8.712;2023-04-22T11:40:28;3.38;;;1.20;;
25351;SDS011;13304;48.464;8.712;2023-04-22T11:42:57;3.30;;;1.50;;
25351;SDS011;13304;48.464;8.712;2023-04-22T11:45:24;6.07;;;1.80;;
25351;SDS011;13304;48.464;8.712;2023-04-22T11:47:50;5.03;;;1.58;;
25351;SDS011;13304;48.464;8.712;2023-04-22T11:50:19;4.28;;;1.60;;
25351;SDS011;13304;48.464;8.712;2023-04-22T11:55:28;4.43;;;1.63;;
25351;SDS011;13304;48.464;8.712;2023-04-22T11:57:57;6.75;;;1.40;;
25351;SDS011;13304;48.464;8.712;2023-04-22T12:00:29;4.25;;;1.70;;
25351;SDS011;13304;48.464;8.712;2023-04-22T12:05:46;5.43;;;1.65;;
25351;SDS011;13304;48.464;8.712;2023-04-22T12:08:28;5.10;;;1.80;;
25351;SDS011;13304;48.464;8.712;2023-04-22T12:10:57;3.22;;;1.55;;
25351;SDS011;13304;48.464;8.712;2023-04-22T12:13:31;5.28;;;1.83;;
25351;SDS011;13304;48.464;8.712;2023-04-22T12:16:11;4.57;;;1.67;;
25351;SDS011;13304;48.464;8.712;2023-04-22T12:21:13;4.60;;;1.50;;
25351;SDS011;13304;48.464;8.712;2023-04-22T12:26:07;3.47;;;1.60;;
25351;SDS011;13304;48.464;8.712;2023-04-22T12:28:33;4.70;;;1.63;;
25351;SDS011;13304;48.464;8.712;2023-04-22T12:31:01;2.38;;;1.48;;
25351;SDS011;13304;48.464;8.712;2023-04-22T12:33:26;4.28;;;1.55;;
25351;SDS011;13304;48.464;8.712;2023-04-22T12:35:52;5.55;;;1.85;;
25351;SDS011;13304;48.464;8.712;2023-04-22T12:38:18;4.57;;;1.65;;
25351;SDS011;13304;48.464;8.712;2023-04-22T12:40:44;2.70;;;1.40;;
25351;SDS011;13304;48.464;8.712;2023-04-22T12:43:10;5.85;;;1.60;;
25351;SDS011;13304;48.464;8.712;2023-04-22T12:45:36;3.40;;;1.80;;
25351;SDS011;13304;48.464;8.712;2023-04-22T12:48:02;2.67;;;1.50;;
25351;SDS011;13304;48.464;8.712;2023-04-22T12:50:28;6.53;;;1.63;;
25351;SDS011;13304;48.464;8.712;2023-04-22T12:52:54;4.68;;;1.58;;
25351;SDS011;13304;48.464;8.712;2023-04-22T12:55:19;4.38;;;1.45;;
25351;SDS011;13304;48.464;8.712;2023-04-22T12:57:46;4.68;;;1.40;;
25351;SDS011;13304;48.464;8.712;2023-04-22T13:00:13;2.28;;;1.48;;
25351;SDS011;13304;48.464;8.712;2023-04-22T13:02:41;4.35;;;1.80;;
25351;SDS011;13304;48.464;8.712;2023-04-22T13:05:08;3.97;;;1.30;;
25351;SDS011;13304;48.464;8.712;2023-04-22T13:07:35;3.08;;;1.58;;
25351;SDS011;13304;48.464;8.712;2023-04-22T13:10:02;6.28;;;2.05;;
25351;SDS011;13304;48.464;8.712;2023-04-22T13:12:29;4.32;;;1.52;;
25351;SDS011;13304;48.464;8.712;2023-04-22T13:14:54;4.63;;;1.60;;
25351;SDS011;13304;48.464;8.712;2023-04-22T13:17:20;3.65;;;1.70;;
25351;SDS011;13304;48.464;8.712;2023-04-22T13:19:46;7.78;;;2.42;;
25351;SDS011;13304;48.464;8.712;2023-04-22T13:22:12;3.20;;;2.15;;
25351;SDS011;13304;48.464;8.712;2023-04-22T13:24:38;3.72;;;1.70;;
25351;SDS011;13304;48.464;8.712;2023-04-22T13:27:04;5.68;;;1.98;;
25351;SDS011;13304;48.464;8.712;2023-04-22T13:29:31;4.72;;;1.98;;
25351;SDS011;13304;48.464;8.712;2023-04-22T13:31:59;4.80;;;2.08;;
25351;SDS011;13304;48.464;8.712;2023-04-22T13:34:25;4.10;;;1.60;;
25351;SDS011;13304;48.464;8.712;2023-04-22T13:36:51;4.78;;;1.50;;
25351;SDS011;13304;48.464;8.712;2023-04-22T13:39:17;3.53;;;1.85;;
25351;SDS011;13304;48.464;8.712;2023-04-22T13:41:45;3.28;;;1.42;;
25351;SDS011;13304;48.464;8.712;2023-04-22T13:44:11;7.10;;;1.88;;
25351;SDS011;13304;48.464;8.712;2023-04-22T13:46:37;2.30;;;1.35;;
25351;SDS011;13304;48.464;8.712;2023-04-22T13:49:04;14.02;;;1.73;;
25351;SDS011;13304;48.464;8.712;2023-04-22T13:51:30;2.70;;;1.40;;
25351;SDS011;13304;48.464;8.712;2023-04-22T13:53:59;4.15;;;1.60;;
25351;SDS011;13304;48.464;8.712;2023-04-22T13:56:25;9.55;;;1.98;;
25351;SDS011;13304;48.464;8.712;2023-04-22T13:58:52;6.68;;;1.90;;
25351;SDS011;13304;48.464;8.712;2023-04-22T14:01:18;3.67;;;1.73;;
25351;SDS011;13304;48.464;8.712;2023-04-22T14:03:44;4.93;;;1.92;;
25351;SDS011;13304;48.464;8.712;2023-04-22T14:06:13;4.22;;;1.60;;
25351;SDS011;13304;48.464;8.712;2023-04-22T14:08:39;3.60;;;1.88;;
25351;SDS011;13304;48.464;8.712;2023-04-22T14:11:06;5.32;;;1.48;;
25351;SDS011;13304;48.464;8.712;2023-04-22T14:13:32;4.13;;;1.95;;
25351;SDS011;13304;48.464;8.712;2023-04-22T14:15:59;3.53;;;1.90;;
25351;SDS011;13304;48.464;8.712;2023-04-22T14:18:27;4.70;;;1.73;;
25351;SDS011;13304;48.464;8.712;2023-04-22T14:20:53;5.78;;;1.98;;
25351;SDS011;13304;48.464;8.712;2023-04-22T14:23:19;3.17;;;1.52;;
25351;SDS011;13304;48.464;8.712;2023-04-22T14:25:46;4.75;;;2.10;;
25351;SDS011;13304;48.464;8.712;2023-04-22T14:28:13;3.38;;;1.70;;
25351;SDS011;13304;48.464;8.712;2023-04-22T14:30:39;4.95;;;1.63;;
25351;SDS011;13304;48.464;8.712;2023-04-22T14:33:05;4.82;;;2.05;;
25351;SDS011;13304;48.464;8.712;2023-04-22T14:35:35;6.13;;;1.95;;
25351;SDS011;13304;48.464;8.712;2023-04-22T14:38:04;3.90;;;1.98;;
25351;SDS011;13304;48.464;8.712;2023-04-22T14:40:32;4.88;;;2.22;;
25351;SDS011;13304;48.464;8.712;2023-04-22T14:42:58;3.75;;;1.80;;
25351;SDS011;13304;48.464;8.712;2023-04-22T14:45:27;3.22;;;1.70;;
25351;SDS011;13304;48.464;8.712;2023-04-22T14:47:53;4.53;;;2.00;;
25351;SDS011;13304;48.464;8.712;2023-04-22T14:50:20;4.53;;;1.75;;
25351;SDS011;13304;48.464;8.712;2023-04-22T14:52:46;3.40;;;1.92;;
25351;SDS011;13304;48.464;8.712;2023-04-22T14:55:12;4.00;;;1.92;;
25351;SDS011;13304;48.464;8.712;2023-04-22T14:57:38;4.65;;;1.88;;
25351;SDS011;13304;48.464;8.712;2023-04-22T15:00:04;3.70;;;1.88;;
25351;SDS011;13304;48.464;8.712;2023-04-22T15:02:32;2.55;;;1.50;;
25351;SDS011;13304;48.464;8.712;2023-04-22T15:04:58;8.93;;;1.95;;
25351;SDS011;13304;48.464;8.712;2023-04-22T15:07:24;4.10;;;1.50;;
25351;SDS011;13304;48.464;8.712;2023-04-22T15:09:50;4.72;;;2.08;;
25351;SDS011;13304;48.464;8.712;2023-04-22T15:12:16;3.47;;;1.45;;
25351;SDS011;13304;48.464;8.712;2023-04-22T15:14:42;4.55;;;1.83;;
25351;SDS011;13304;48.464;8.712;2023-04-22T15:17:08;3.67;;;1.73;;
25351;SDS011;13304;48.464;8.712;2023-04-22T15:19:34;5.45;;;1.80;;